CTM9 weather

New Oakville Trafalgar Memorial Hospital Heliport
Oakville, Ontario, Canada

Public forecast

Using degrees Celsius for public forecast. Weather courtesy of forecast.io.

Closest aviation weather report (METAR) to New Oakville Trafalgar Memorial Hospital Heliport

Closest report is Lester B. Pearson International Airport, 14.9 nm (27.5 km) NNE. Retrieved 2020/01/21 07:32 UTC (16 minutes ago):

CYYZ 210732Z 07010KT 15SM -SN OVC042 M08/M10 A3046 RMK SC8 SLP326

Closest aviation forecast (TAF) to New Oakville Trafalgar Memorial Hospital Heliport

Closest forecast is Lester B. Pearson International Airport, 14.9 nm (27.5 km) NNE. Retrieved 2020/01/21 09:41 UTC (0 seconds ago):

TAF CYYZ 210838Z 2109/2212 08008KT P6SM -SHSN OVC040 BECMG 2113/2114 VRB03KT FM211500 26010G20KT P6SM SCT030 BKN140 FM211800 26010G20KT P6SM BKN030 BKN120 BECMG 2200/2202 25012KT FM220600 23012KT P6SM BKN015 FM221000 24012KT P6SM FEW015 RMK NXT FCST BY 211200Z